sensor_id;sensor_type;location;lat;lon;timestamp;P1;durP1;ratioP1;P2;durP2;ratioP2
14203;SDS011;7185;51.854;6.622;2022-11-04T00:02:12;8.85;;;4.38;;
14203;SDS011;7185;51.854;6.622;2022-11-04T00:04:43;8.23;;;4.60;;
14203;SDS011;7185;51.854;6.622;2022-11-04T00:07:15;8.50;;;4.65;;
14203;SDS011;7185;51.854;6.622;2022-11-04T00:10:04;11.18;;;5.45;;
14203;SDS011;7185;51.854;6.622;2022-11-04T00:12:36;9.10;;;5.68;;
14203;SDS011;7185;51.854;6.622;2022-11-04T00:15:07;9.68;;;6.05;;
14203;SDS011;7185;51.854;6.622;2022-11-04T00:18:05;9.20;;;5.97;;
14203;SDS011;7185;51.854;6.622;2022-11-04T00:20:36;10.15;;;5.88;;
14203;SDS011;7185;51.854;6.622;2022-11-04T00:23:39;8.48;;;5.43;;
14203;SDS011;7185;51.854;6.622;2022-11-04T00:26:28;8.07;;;4.90;;
14203;SDS011;7185;51.854;6.622;2022-11-04T00:29:19;9.23;;;5.40;;
14203;SDS011;7185;51.854;6.622;2022-11-04T00:31:50;8.82;;;5.38;;
14203;SDS011;7185;51.854;6.622;2022-11-04T00:34:39;9.13;;;6.05;;
14203;SDS011;7185;51.854;6.622;2022-11-04T00:37:11;10.32;;;6.13;;
14203;SDS011;7185;51.854;6.622;2022-11-04T00:39:42;10.30;;;6.75;;
14203;SDS011;7185;51.854;6.622;2022-11-04T00:42:14;10.05;;;7.43;;
14203;SDS011;7185;51.854;6.622;2022-11-04T00:44:46;9.98;;;6.97;;
14203;SDS011;7185;51.854;6.622;2022-11-04T00:47:21;9.65;;;6.63;;
14203;SDS011;7185;51.854;6.622;2022-11-04T00:49:52;10.40;;;6.90;;
14203;SDS011;7185;51.854;6.622;2022-11-04T00:52:24;10.32;;;6.70;;
14203;SDS011;7185;51.854;6.622;2022-11-04T00:54:55;10.73;;;7.15;;
14203;SDS011;7185;51.854;6.622;2022-11-04T00:57:26;11.57;;;6.70;;
14203;SDS011;7185;51.854;6.622;2022-11-04T00:59:59;10.13;;;6.72;;
14203;SDS011;7185;51.854;6.622;2022-11-04T01:02:30;11.00;;;6.70;;
14203;SDS011;7185;51.854;6.622;2022-11-04T01:05:02;9.07;;;5.90;;
14203;SDS011;7185;51.854;6.622;2022-11-04T01:07:33;8.18;;;5.70;;
14203;SDS011;7185;51.854;6.622;2022-11-04T01:13:18;10.48;;;5.63;;
14203;SDS011;7185;51.854;6.622;2022-11-04T01:15:51;10.82;;;6.28;;
14203;SDS011;7185;51.854;6.622;2022-11-04T01:18:22;9.52;;;6.05;;
14203;SDS011;7185;51.854;6.622;2022-11-04T01:20:54;9.02;;;5.60;;
14203;SDS011;7185;51.854;6.622;2022-11-04T01:23:25;9.85;;;6.15;;
14203;SDS011;7185;51.854;6.622;2022-11-04T01:25:57;9.30;;;6.03;;
14203;SDS011;7185;51.854;6.622;2022-11-04T01:28:28;10.15;;;5.88;;
14203;SDS011;7185;51.854;6.622;2022-11-04T01:31:05;8.85;;;5.75;;
14203;SDS011;7185;51.854;6.622;2022-11-04T01:33:37;8.65;;;6.10;;
14203;SDS011;7185;51.854;6.622;2022-11-04T01:36:09;9.27;;;5.93;;
14203;SDS011;7185;51.854;6.622;2022-11-04T01:38:41;9.43;;;5.57;;
14203;SDS011;7185;51.854;6.622;2022-11-04T01:41:15;9.13;;;5.30;;
14203;SDS011;7185;51.854;6.622;2022-11-04T01:43:48;7.85;;;5.53;;
14203;SDS011;7185;51.854;6.622;2022-11-04T01:46:23;8.95;;;5.22;;
14203;SDS011;7185;51.854;6.622;2022-11-04T01:48:58;8.68;;;4.93;;
14203;SDS011;7185;51.854;6.622;2022-11-04T01:51:33;7.18;;;5.05;;
14203;SDS011;7185;51.854;6.622;2022-11-04T01:54:06;6.95;;;4.63;;
14203;SDS011;7185;51.854;6.622;2022-11-04T01:56:38;7.35;;;4.57;;
14203;SDS011;7185;51.854;6.622;2022-11-04T01:59:12;5.95;;;4.43;;
14203;SDS011;7185;51.854;6.622;2022-11-04T02:01:47;6.20;;;3.78;;
14203;SDS011;7185;51.854;6.622;2022-11-04T02:04:18;7.50;;;4.78;;
14203;SDS011;7185;51.854;6.622;2022-11-04T02:06:57;8.75;;;5.63;;
14203;SDS011;7185;51.854;6.622;2022-11-04T02:09:29;12.07;;;5.90;;
14203;SDS011;7185;51.854;6.622;2022-11-04T02:12:01;13.00;;;7.55;;
14203;SDS011;7185;51.854;6.622;2022-11-04T02:14:50;11.82;;;7.85;;
14203;SDS011;7185;51.854;6.622;2022-11-04T02:17:32;14.65;;;7.85;;
14203;SDS011;7185;51.854;6.622;2022-11-04T02:20:21;15.10;;;8.30;;
14203;SDS011;7185;51.854;6.622;2022-11-04T02:23:02;14.98;;;8.98;;
14203;SDS011;7185;51.854;6.622;2022-11-04T02:28:46;18.40;;;8.82;;
14203;SDS011;7185;51.854;6.622;2022-11-04T02:31:24;14.82;;;9.70;;
14203;SDS011;7185;51.854;6.622;2022-11-04T02:34:00;16.13;;;9.05;;
14203;SDS011;7185;51.854;6.622;2022-11-04T02:36:34;19.55;;;9.50;;
14203;SDS011;7185;51.854;6.622;2022-11-04T02:39:10;17.17;;;9.30;;
14203;SDS011;7185;51.854;6.622;2022-11-04T02:41:45;15.82;;;9.13;;
14203;SDS011;7185;51.854;6.622;2022-11-04T02:44:18;17.13;;;9.88;;
14203;SDS011;7185;51.854;6.622;2022-11-04T02:46:53;17.20;;;9.65;;
14203;SDS011;7185;51.854;6.622;2022-11-04T02:49:31;16.83;;;8.98;;
14203;SDS011;7185;51.854;6.622;2022-11-04T02:52:05;18.25;;;9.13;;
14203;SDS011;7185;51.854;6.622;2022-11-04T02:54:38;16.90;;;9.65;;
14203;SDS011;7185;51.854;6.622;2022-11-04T02:57:13;18.45;;;8.77;;
14203;SDS011;7185;51.854;6.622;2022-11-04T02:59:47;16.27;;;9.20;;
14203;SDS011;7185;51.854;6.622;2022-11-04T03:02:23;16.23;;;9.18;;
14203;SDS011;7185;51.854;6.622;2022-11-04T03:04:55;16.67;;;9.68;;
14203;SDS011;7185;51.854;6.622;2022-11-04T03:07:28;17.42;;;9.70;;
14203;SDS011;7185;51.854;6.622;2022-11-04T03:10:01;16.95;;;8.68;;
14203;SDS011;7185;51.854;6.622;2022-11-04T03:12:36;20.52;;;9.43;;
14203;SDS011;7185;51.854;6.622;2022-11-04T03:15:10;15.48;;;9.05;;
14203;SDS011;7185;51.854;6.622;2022-11-04T03:17:47;15.50;;;8.45;;
14203;SDS011;7185;51.854;6.622;2022-11-04T03:20:21;15.70;;;8.93;;
14203;SDS011;7185;51.854;6.622;2022-11-04T03:22:53;17.73;;;8.60;;
14203;SDS011;7185;51.854;6.622;2022-11-04T03:25:29;12.20;;;7.50;;
14203;SDS011;7185;51.854;6.622;2022-11-04T03:28:03;13.85;;;8.07;;
14203;SDS011;7185;51.854;6.622;2022-11-04T03:30:37;15.65;;;7.88;;
14203;SDS011;7185;51.854;6.622;2022-11-04T03:33:13;12.68;;;7.13;;
14203;SDS011;7185;51.854;6.622;2022-11-04T03:35:47;15.20;;;7.32;;
14203;SDS011;7185;51.854;6.622;2022-11-04T03:38:19;15.25;;;7.47;;
14203;SDS011;7185;51.854;6.622;2022-11-04T03:40:51;13.30;;;6.40;;
14203;SDS011;7185;51.854;6.622;2022-11-04T03:43:23;9.68;;;6.25;;
14203;SDS011;7185;51.854;6.622;2022-11-04T03:45:56;10.82;;;5.93;;
14203;SDS011;7185;51.854;6.622;2022-11-04T03:48:29;10.98;;;6.25;;
14203;SDS011;7185;51.854;6.622;2022-11-04T03:51:01;10.10;;;5.68;;
14203;SDS011;7185;51.854;6.622;2022-11-04T03:53:36;12.82;;;5.40;;
14203;SDS011;7185;51.854;6.622;2022-11-04T03:56:19;9.65;;;5.32;;
14203;SDS011;7185;51.854;6.622;2022-11-04T03:58:57;8.55;;;4.45;;
14203;SDS011;7185;51.854;6.622;2022-11-04T04:01:36;11.13;;;4.80;;
14203;SDS011;7185;51.854;6.622;2022-11-04T04:04:13;12.18;;;4.35;;
14203;SDS011;7185;51.854;6.622;2022-11-04T04:06:46;11.57;;;5.00;;
14203;SDS011;7185;51.854;6.622;2022-11-04T04:09:19;11.32;;;4.65;;
14203;SDS011;7185;51.854;6.622;2022-11-04T04:11:52;10.18;;;4.47;;
14203;SDS011;7185;51.854;6.622;2022-11-04T04:14:26;6.78;;;3.53;;
14203;SDS011;7185;51.854;6.622;2022-11-04T04:17:13;9.25;;;3.78;;
14203;SDS011;7185;51.854;6.622;2022-11-04T04:19:48;7.15;;;3.80;;
14203;SDS011;7185;51.854;6.622;2022-11-04T04:22:21;8.82;;;3.97;;
14203;SDS011;7185;51.854;6.622;2022-11-04T04:24:54;10.70;;;3.53;;
14203;SDS011;7185;51.854;6.622;2022-11-04T04:27:44;5.57;;;3.47;;
14203;SDS011;7185;51.854;6.622;2022-11-04T04:30:17;8.43;;;3.80;;
14203;SDS011;7185;51.854;6.622;2022-11-04T04:32:49;9.68;;;4.28;;
14203;SDS011;7185;51.854;6.622;2022-11-04T04:35:24;8.02;;;3.67;;
14203;SDS011;7185;51.854;6.622;2022-11-04T04:38:16;6.32;;;3.22;;
14203;SDS011;7185;51.854;6.622;2022-11-04T04:41:09;10.15;;;4.50;;
14203;SDS011;7185;51.854;6.622;2022-11-04T04:43:58;7.20;;;3.33;;
14203;SDS011;7185;51.854;6.622;2022-11-04T04:46:47;8.88;;;3.17;;
14203;SDS011;7185;51.854;6.622;2022-11-04T04:49:19;9.15;;;3.63;;
14203;SDS011;7185;51.854;6.622;2022-11-04T04:51:52;6.95;;;3.47;;
14203;SDS011;7185;51.854;6.622;2022-11-04T04:54:23;9.68;;;3.70;;
14203;SDS011;7185;51.854;6.622;2022-11-04T04:56:55;10.88;;;3.80;;
14203;SDS011;7185;51.854;6.622;2022-11-04T04:59:26;8.68;;;3.60;;
14203;SDS011;7185;51.854;6.622;2022-11-04T05:01:57;10.63;;;3.47;;
14203;SDS011;7185;51.854;6.622;2022-11-04T05:04:29;10.75;;;3.63;;
14203;SDS011;7185;51.854;6.622;2022-11-04T05:07:02;5.85;;;2.97;;
14203;SDS011;7185;51.854;6.622;2022-11-04T05:09:33;5.22;;;2.97;;
14203;SDS011;7185;51.854;6.622;2022-11-04T05:12:04;8.25;;;3.35;;
14203;SDS011;7185;51.854;6.622;2022-11-04T05:14:36;9.05;;;2.88;;
14203;SDS011;7185;51.854;6.622;2022-11-04T05:17:07;8.63;;;3.35;;
14203;SDS011;7185;51.854;6.622;2022-11-04T05:19:39;6.65;;;3.00;;
14203;SDS011;7185;51.854;6.622;2022-11-04T05:22:12;8.43;;;2.90;;
14203;SDS011;7185;51.854;6.622;2022-11-04T05:24:43;7.18;;;3.10;;
14203;SDS011;7185;51.854;6.622;2022-11-04T05:27:14;7.63;;;3.33;;
14203;SDS011;7185;51.854;6.622;2022-11-04T05:29:46;7.22;;;3.47;;
14203;SDS011;7185;51.854;6.622;2022-11-04T05:32:17;5.82;;;2.90;;
14203;SDS011;7185;51.854;6.622;2022-11-04T05:34:48;6.05;;;3.10;;
14203;SDS011;7185;51.854;6.622;2022-11-04T05:37:21;7.30;;;4.18;;
14203;SDS011;7185;51.854;6.622;2022-11-04T05:39:53;5.70;;;2.95;;
14203;SDS011;7185;51.854;6.622;2022-11-04T05:42:27;7.18;;;3.03;;
14203;SDS011;7185;51.854;6.622;2022-11-04T05:44:59;8.55;;;3.50;;
14203;SDS011;7185;51.854;6.622;2022-11-04T05:47:31;6.85;;;3.40;;
14203;SDS011;7185;51.854;6.622;2022-11-04T05:50:02;12.05;;;3.72;;
14203;SDS011;7185;51.854;6.622;2022-11-04T05:52:35;7.38;;;3.50;;
14203;SDS011;7185;51.854;6.622;2022-11-04T05:55:07;10.68;;;3.20;;
14203;SDS011;7185;51.854;6.622;2022-11-04T05:57:38;7.50;;;3.38;;
14203;SDS011;7185;51.854;6.622;2022-11-04T06:00:10;8.95;;;3.30;;
14203;SDS011;7185;51.854;6.622;2022-11-04T06:02:41;11.50;;;4.28;;
14203;SDS011;7185;51.854;6.622;2022-11-04T06:05:13;12.30;;;4.32;;
14203;SDS011;7185;51.854;6.622;2022-11-04T06:07:46;8.70;;;3.80;;
14203;SDS011;7185;51.854;6.622;2022-11-04T06:10:17;7.43;;;3.33;;
14203;SDS011;7185;51.854;6.622;2022-11-04T06:12:48;7.22;;;3.88;;
14203;SDS011;7185;51.854;6.622;2022-11-04T06:15:20;6.50;;;3.28;;
14203;SDS011;7185;51.854;6.622;2022-11-04T06:17:51;6.93;;;3.90;;
14203;SDS011;7185;51.854;6.622;2022-11-04T06:20:23;37.22;;;13.32;;
14203;SDS011;7185;51.854;6.622;2022-11-04T06:22:55;15.13;;;6.45;;
14203;SDS011;7185;51.854;6.622;2022-11-04T06:25:27;12.63;;;4.13;;
14203;SDS011;7185;51.854;6.622;2022-11-04T06:27:58;12.63;;;4.40;;
14203;SDS011;7185;51.854;6.622;2022-11-04T06:30:29;8.98;;;3.95;;
14203;SDS011;7185;51.854;6.622;2022-11-04T06:33:01;12.35;;;3.88;;
14203;SDS011;7185;51.854;6.622;2022-11-04T06:35:32;7.28;;;4.05;;
14203;SDS011;7185;51.854;6.622;2022-11-04T06:38:05;9.48;;;3.63;;
14203;SDS011;7185;51.854;6.622;2022-11-04T06:40:36;13.40;;;4.43;;
14203;SDS011;7185;51.854;6.622;2022-11-04T06:43:08;6.18;;;3.50;;
14203;SDS011;7185;51.854;6.622;2022-11-04T06:45:39;8.52;;;4.88;;
14203;SDS011;7185;51.854;6.622;2022-11-04T06:48:11;11.40;;;4.68;;
14203;SDS011;7185;51.854;6.622;2022-11-04T06:50:42;13.27;;;4.13;;
14203;SDS011;7185;51.854;6.622;2022-11-04T06:53:15;10.38;;;4.13;;
14203;SDS011;7185;51.854;6.622;2022-11-04T06:55:46;12.30;;;4.78;;
14203;SDS011;7185;51.854;6.622;2022-11-04T06:58:17;9.77;;;4.32;;
14203;SDS011;7185;51.854;6.622;2022-11-04T07:00:49;9.23;;;4.60;;
14203;SDS011;7185;51.854;6.622;2022-11-04T07:03:21;12.25;;;5.10;;
14203;SDS011;7185;51.854;6.622;2022-11-04T07:05:52;12.63;;;4.38;;
14203;SDS011;7185;51.854;6.622;2022-11-04T07:08:25;13.30;;;5.38;;
14203;SDS011;7185;51.854;6.622;2022-11-04T07:18:12;14.57;;;4.43;;
14203;SDS011;7185;51.854;6.622;2022-11-04T07:30:27;10.13;;;4.00;;
14203;SDS011;7185;51.854;6.622;2022-11-04T07:33:23;9.40;;;3.92;;
14203;SDS011;7185;51.854;6.622;2022-11-04T07:36:31;7.50;;;3.80;;
14203;SDS011;7185;51.854;6.622;2022-11-04T07:39:42;9.52;;;3.53;;
14203;SDS011;7185;51.854;6.622;2022-11-04T07:42:30;6.65;;;3.50;;
14203;SDS011;7185;51.854;6.622;2022-11-04T07:45:26;9.32;;;3.95;;
14203;SDS011;7185;51.854;6.622;2022-11-04T07:51:15;11.40;;;4.20;;
14203;SDS011;7185;51.854;6.622;2022-11-04T07:57:33;14.43;;;4.18;;
14203;SDS011;7185;51.854;6.622;2022-11-04T08:00:17;10.80;;;4.22;;
14203;SDS011;7185;51.854;6.622;2022-11-04T08:03:02;11.25;;;3.78;;
14203;SDS011;7185;51.854;6.622;2022-11-04T08:05:38;8.52;;;3.60;;
14203;SDS011;7185;51.854;6.622;2022-11-04T08:08:21;12.20;;;3.90;;
14203;SDS011;7185;51.854;6.622;2022-11-04T08:11:17;8.35;;;3.65;;
14203;SDS011;7185;51.854;6.622;2022-11-04T08:14:21;10.88;;;4.07;;
14203;SDS011;7185;51.854;6.622;2022-11-04T08:17:24;10.65;;;4.07;;
14203;SDS011;7185;51.854;6.622;2022-11-04T08:20:18;9.60;;;4.07;;
14203;SDS011;7185;51.854;6.622;2022-11-04T08:23:00;10.48;;;3.92;;
14203;SDS011;7185;51.854;6.622;2022-11-04T08:28:44;10.60;;;3.40;;
14203;SDS011;7185;51.854;6.622;2022-11-04T08:31:32;10.55;;;3.30;;
14203;SDS011;7185;51.854;6.622;2022-11-04T08:34:09;8.63;;;3.83;;
14203;SDS011;7185;51.854;6.622;2022-11-04T08:36:54;7.65;;;3.25;;
14203;SDS011;7185;51.854;6.622;2022-11-04T08:39:45;8.32;;;3.60;;
14203;SDS011;7185;51.854;6.622;2022-11-04T08:42:19;10.38;;;3.95;;
14203;SDS011;7185;51.854;6.622;2022-11-04T08:45:04;15.82;;;3.65;;
14203;SDS011;7185;51.854;6.622;2022-11-04T08:47:45;9.32;;;3.50;;
14203;SDS011;7185;51.854;6.622;2022-11-04T08:50:23;11.63;;;3.47;;
14203;SDS011;7185;51.854;6.622;2022-11-04T08:53:05;12.07;;;3.75;;
14203;SDS011;7185;51.854;6.622;2022-11-04T08:55:41;6.25;;;3.25;;
14203;SDS011;7185;51.854;6.622;2022-11-04T08:58:27;10.13;;;3.85;;
14203;SDS011;7185;51.854;6.622;2022-11-04T09:01:03;8.55;;;3.38;;
14203;SDS011;7185;51.854;6.622;2022-11-04T09:03:55;19.10;;;3.83;;
14203;SDS011;7185;51.854;6.622;2022-11-04T09:06:36;7.85;;;3.50;;
14203;SDS011;7185;51.854;6.622;2022-11-04T09:09:39;11.95;;;3.10;;
14203;SDS011;7185;51.854;6.622;2022-11-04T09:15:13;9.20;;;3.45;;
14203;SDS011;7185;51.854;6.622;2022-11-04T09:17:48;7.53;;;2.95;;
14203;SDS011;7185;51.854;6.622;2022-11-04T09:24:35;8.45;;;2.88;;
14203;SDS011;7185;51.854;6.622;2022-11-04T09:26:35;8.25;;;3.00;;
14203;SDS011;7185;51.854;6.622;2022-11-04T09:29:06;10.18;;;3.35;;
14203;SDS011;7185;51.854;6.622;2022-11-04T09:31:38;10.57;;;3.00;;
14203;SDS011;7185;51.854;6.622;2022-11-04T09:34:13;6.05;;;2.60;;
14203;SDS011;7185;51.854;6.622;2022-11-04T09:36:44;6.38;;;2.65;;
14203;SDS011;7185;51.854;6.622;2022-11-04T09:39:16;8.50;;;2.40;;
14203;SDS011;7185;51.854;6.622;2022-11-04T09:41:54;8.82;;;2.35;;
14203;SDS011;7185;51.854;6.622;2022-11-04T09:44:28;5.90;;;2.75;;
14203;SDS011;7185;51.854;6.622;2022-11-04T09:47:03;9.38;;;2.85;;
14203;SDS011;7185;51.854;6.622;2022-11-04T09:49:37;7.68;;;2.55;;
14203;SDS011;7185;51.854;6.622;2022-11-04T09:52:12;9.98;;;2.88;;
14203;SDS011;7185;51.854;6.622;2022-11-04T09:54:47;7.95;;;2.60;;
14203;SDS011;7185;51.854;6.622;2022-11-04T09:57:20;10.43;;;3.15;;
14203;SDS011;7185;51.854;6.622;2022-11-04T09:59:52;6.97;;;2.88;;
14203;SDS011;7185;51.854;6.622;2022-11-04T10:02:28;12.75;;;3.35;;
14203;SDS011;7185;51.854;6.622;2022-11-04T10:05:08;7.30;;;3.17;;
14203;SDS011;7185;51.854;6.622;2022-11-04T10:07:47;11.88;;;3.50;;
14203;SDS011;7185;51.854;6.622;2022-11-04T10:10:26;7.60;;;2.80;;
14203;SDS011;7185;51.854;6.622;2022-11-04T10:13:05;14.50;;;3.42;;
14203;SDS011;7185;51.854;6.622;2022-11-04T10:18:32;7.90;;;2.70;;
14203;SDS011;7185;51.854;6.622;2022-11-04T10:21:08;11.27;;;2.88;;
14203;SDS011;7185;51.854;6.622;2022-11-04T10:23:43;15.18;;;3.38;;
14203;SDS011;7185;51.854;6.622;2022-11-04T10:26:16;9.55;;;2.88;;
14203;SDS011;7185;51.854;6.622;2022-11-04T10:28:50;12.88;;;3.45;;
14203;SDS011;7185;51.854;6.622;2022-11-04T10:31:22;9.25;;;2.80;;
14203;SDS011;7185;51.854;6.622;2022-11-04T10:33:55;8.27;;;3.00;;
14203;SDS011;7185;51.854;6.622;2022-11-04T10:36:29;11.63;;;3.15;;
14203;SDS011;7185;51.854;6.622;2022-11-04T10:39:02;8.48;;;2.85;;
14203;SDS011;7185;51.854;6.622;2022-11-04T10:41:36;7.22;;;2.65;;
14203;SDS011;7185;51.854;6.622;2022-11-04T10:44:09;5.57;;;2.35;;
14203;SDS011;7185;51.854;6.622;2022-11-04T10:46:44;8.75;;;3.22;;
14203;SDS011;7185;51.854;6.622;2022-11-04T10:49:24;10.00;;;3.10;;
14203;SDS011;7185;51.854;6.622;2022-11-04T10:52:01;6.63;;;2.55;;
14203;SDS011;7185;51.854;6.622;2022-11-04T10:54:34;7.32;;;2.50;;
14203;SDS011;7185;51.854;6.622;2022-11-04T10:57:07;7.45;;;2.70;;
14203;SDS011;7185;51.854;6.622;2022-11-04T10:59:45;10.75;;;2.70;;
14203;SDS011;7185;51.854;6.622;2022-11-04T11:02:17;9.55;;;2.60;;
14203;SDS011;7185;51.854;6.622;2022-11-04T11:04:49;5.55;;;2.13;;
14203;SDS011;7185;51.854;6.622;2022-11-04T11:07:22;9.70;;;2.72;;
14203;SDS011;7185;51.854;6.622;2022-11-04T11:10:14;8.57;;;2.90;;
14203;SDS011;7185;51.854;6.622;2022-11-04T11:12:49;7.88;;;2.67;;
14203;SDS011;7185;51.854;6.622;2022-11-04T11:15:26;6.47;;;2.50;;
14203;SDS011;7185;51.854;6.622;2022-11-04T11:17:59;8.25;;;2.90;;
14203;SDS011;7185;51.854;6.622;2022-11-04T11:20:31;5.60;;;2.40;;
14203;SDS011;7185;51.854;6.622;2022-11-04T11:23:31;7.07;;;2.55;;
14203;SDS011;7185;51.854;6.622;2022-11-04T11:26:03;8.60;;;2.95;;
14203;SDS011;7185;51.854;6.622;2022-11-04T11:28:36;7.47;;;2.78;;
14203;SDS011;7185;51.854;6.622;2022-11-04T11:31:10;5.20;;;2.38;;
14203;SDS011;7185;51.854;6.622;2022-11-04T11:33:47;8.45;;;2.88;;
14203;SDS011;7185;51.854;6.622;2022-11-04T11:36:20;7.80;;;3.30;;
14203;SDS011;7185;51.854;6.622;2022-11-04T11:38:57;5.63;;;2.63;;
14203;SDS011;7185;51.854;6.622;2022-11-04T11:41:31;7.30;;;2.90;;
14203;SDS011;7185;51.854;6.622;2022-11-04T11:44:05;9.85;;;3.35;;
14203;SDS011;7185;51.854;6.622;2022-11-04T11:49:10;7.80;;;2.92;;
14203;SDS011;7185;51.854;6.622;2022-11-04T11:51:52;9.32;;;3.38;;
14203;SDS011;7185;51.854;6.622;2022-11-04T11:54:26;9.52;;;4.10;;
14203;SDS011;7185;51.854;6.622;2022-11-04T11:57:03;8.82;;;3.45;;
14203;SDS011;7185;51.854;6.622;2022-11-04T11:59:41;9.77;;;3.40;;
14203;SDS011;7185;51.854;6.622;2022-11-04T12:02:19;7.75;;;3.45;;
14203;SDS011;7185;51.854;6.622;2022-11-04T12:04:53;9.40;;;3.50;;
14203;SDS011;7185;51.854;6.622;2022-11-04T12:07:28;8.70;;;3.58;;
14203;SDS011;7185;51.854;6.622;2022-11-04T12:10:08;9.15;;;3.35;;
14203;SDS011;7185;51.854;6.622;2022-11-04T12:12:51;9.25;;;3.60;;
14203;SDS011;7185;51.854;6.622;2022-11-04T12:15:45;9.15;;;3.22;;
14203;SDS011;7185;51.854;6.622;2022-11-04T12:18:33;8.80;;;2.88;;
14203;SDS011;7185;51.854;6.622;2022-11-04T12:21:08;12.77;;;3.58;;
14203;SDS011;7185;51.854;6.622;2022-11-04T12:23:44;7.57;;;2.83;;
14203;SDS011;7185;51.854;6.622;2022-11-04T12:26:21;12.18;;;4.00;;
14203;SDS011;7185;51.854;6.622;2022-11-04T12:29:02;9.70;;;3.53;;
14203;SDS011;7185;51.854;6.622;2022-11-04T12:31:38;6.22;;;3.13;;
14203;SDS011;7185;51.854;6.622;2022-11-04T12:34:15;8.85;;;3.22;;
14203;SDS011;7185;51.854;6.622;2022-11-04T12:36:58;10.93;;;3.30;;
14203;SDS011;7185;51.854;6.622;2022-11-04T12:39:37;6.70;;;3.20;;
14203;SDS011;7185;51.854;6.622;2022-11-04T12:42:16;7.30;;;3.03;;
14203;SDS011;7185;51.854;6.622;2022-11-04T12:44:52;6.10;;;3.67;;
14203;SDS011;7185;51.854;6.622;2022-11-04T12:47:30;9.02;;;3.08;;
14203;SDS011;7185;51.854;6.622;2022-11-04T12:50:05;7.72;;;3.10;;
14203;SDS011;7185;51.854;6.622;2022-11-04T12:52:45;7.20;;;3.00;;
14203;SDS011;7185;51.854;6.622;2022-11-04T12:55:23;9.40;;;3.65;;
14203;SDS011;7185;51.854;6.622;2022-11-04T12:58:01;9.02;;;3.88;;
14203;SDS011;7185;51.854;6.622;2022-11-04T13:00:36;7.75;;;4.07;;
14203;SDS011;7185;51.854;6.622;2022-11-04T13:03:10;8.65;;;4.53;;
14203;SDS011;7185;51.854;6.622;2022-11-04T13:05:45;9.48;;;4.50;;
14203;SDS011;7185;51.854;6.622;2022-11-04T13:08:20;12.23;;;5.10;;
14203;SDS011;7185;51.854;6.622;2022-11-04T13:11:08;11.48;;;5.70;;
14203;SDS011;7185;51.854;6.622;2022-11-04T13:13:55;14.52;;;5.90;;
14203;SDS011;7185;51.854;6.622;2022-11-04T13:16:37;13.23;;;5.22;;
14203;SDS011;7185;51.854;6.622;2022-11-04T13:19:13;10.52;;;4.85;;
14203;SDS011;7185;51.854;6.622;2022-11-04T13:21:48;11.90;;;4.95;;
14203;SDS011;7185;51.854;6.622;2022-11-04T13:24:24;10.52;;;5.30;;
14203;SDS011;7185;51.854;6.622;2022-11-04T13:27:00;15.25;;;6.40;;
14203;SDS011;7185;51.854;6.622;2022-11-04T13:32:15;12.52;;;5.65;;
14203;SDS011;7185;51.854;6.622;2022-11-04T13:34:49;12.95;;;5.43;;
14203;SDS011;7185;51.854;6.622;2022-11-04T13:37:23;16.45;;;6.22;;
14203;SDS011;7185;51.854;6.622;2022-11-04T13:39:55;15.15;;;5.80;;
14203;SDS011;7185;51.854;6.622;2022-11-04T13:42:34;11.60;;;5.30;;
14203;SDS011;7185;51.854;6.622;2022-11-04T13:45:13;13.25;;;4.88;;
14203;SDS011;7185;51.854;6.622;2022-11-04T13:47:47;9.18;;;4.90;;
14203;SDS011;7185;51.854;6.622;2022-11-04T13:50:26;9.30;;;5.22;;
14203;SDS011;7185;51.854;6.622;2022-11-04T13:52:58;11.52;;;5.45;;
14203;SDS011;7185;51.854;6.622;2022-11-04T13:55:30;12.15;;;5.65;;
14203;SDS011;7185;51.854;6.622;2022-11-04T13:58:02;11.23;;;5.65;;
14203;SDS011;7185;51.854;6.622;2022-11-04T14:00:34;13.48;;;5.60;;
14203;SDS011;7185;51.854;6.622;2022-11-04T14:06:04;10.43;;;5.43;;
14203;SDS011;7185;51.854;6.622;2022-11-04T14:08:35;11.70;;;6.03;;
14203;SDS011;7185;51.854;6.622;2022-11-04T14:11:27;15.93;;;6.22;;
14203;SDS011;7185;51.854;6.622;2022-11-04T14:14:02;9.18;;;5.72;;
14203;SDS011;7185;51.854;6.622;2022-11-04T14:16:43;10.15;;;5.15;;
14203;SDS011;7185;51.854;6.622;2022-11-04T14:22:10;12.00;;;5.35;;
14203;SDS011;7185;51.854;6.622;2022-11-04T14:24:43;12.65;;;5.50;;
14203;SDS011;7185;51.854;6.622;2022-11-04T14:27:25;11.40;;;5.10;;
14203;SDS011;7185;51.854;6.622;2022-11-04T14:29:57;9.85;;;5.07;;
14203;SDS011;7185;51.854;6.622;2022-11-04T14:32:30;9.80;;;5.85;;
14203;SDS011;7185;51.854;6.622;2022-11-04T14:35:03;13.32;;;5.57;;
14203;SDS011;7185;51.854;6.622;2022-11-04T14:37:36;12.90;;;6.38;;
14203;SDS011;7185;51.854;6.622;2022-11-04T14:40:14;9.43;;;5.38;;
14203;SDS011;7185;51.854;6.622;2022-11-04T14:42:53;8.52;;;5.55;;
14203;SDS011;7185;51.854;6.622;2022-11-04T14:45:28;14.68;;;7.10;;
14203;SDS011;7185;51.854;6.622;2022-11-04T14:48:06;14.35;;;6.95;;
14203;SDS011;7185;51.854;6.622;2022-11-04T14:50:41;14.57;;;7.03;;
14203;SDS011;7185;51.854;6.622;2022-11-04T14:53:15;13.45;;;6.75;;
14203;SDS011;7185;51.854;6.622;2022-11-04T14:56:02;16.23;;;7.45;;
14203;SDS011;7185;51.854;6.622;2022-11-04T14:58:34;21.13;;;8.02;;
14203;SDS011;7185;51.854;6.622;2022-11-04T15:01:06;16.08;;;7.47;;
14203;SDS011;7185;51.854;6.622;2022-11-04T15:03:40;13.05;;;7.18;;
14203;SDS011;7185;51.854;6.622;2022-11-04T15:06:12;20.90;;;7.75;;
14203;SDS011;7185;51.854;6.622;2022-11-04T15:08:45;19.48;;;9.35;;
14203;SDS011;7185;51.854;6.622;2022-11-04T15:11:18;18.95;;;9.07;;
14203;SDS011;7185;51.854;6.622;2022-11-04T15:14:12;18.10;;;9.23;;
14203;SDS011;7185;51.854;6.622;2022-11-04T15:16:44;18.55;;;9.65;;
14203;SDS011;7185;51.854;6.622;2022-11-04T15:19:17;16.00;;;9.13;;
14203;SDS011;7185;51.854;6.622;2022-11-04T15:21:50;17.02;;;9.23;;
14203;SDS011;7185;51.854;6.622;2022-11-04T15:24:23;16.92;;;9.57;;
14203;SDS011;7185;51.854;6.622;2022-11-04T15:27:23;17.88;;;8.95;;
14203;SDS011;7185;51.854;6.622;2022-11-04T15:30:15;17.23;;;9.48;;
14203;SDS011;7185;51.854;6.622;2022-11-04T15:32:52;19.48;;;10.07;;
14203;SDS011;7185;51.854;6.622;2022-11-04T15:35:23;18.63;;;10.02;;
14203;SDS011;7185;51.854;6.622;2022-11-04T15:37:59;18.17;;;9.63;;
14203;SDS011;7185;51.854;6.622;2022-11-04T15:40:32;18.23;;;9.35;;
14203;SDS011;7185;51.854;6.622;2022-11-04T15:43:04;27.80;;;9.68;;
14203;SDS011;7185;51.854;6.622;2022-11-04T15:45:36;22.10;;;9.95;;
14203;SDS011;7185;51.854;6.622;2022-11-04T15:48:27;24.95;;;10.57;;
14203;SDS011;7185;51.854;6.622;2022-11-04T15:51:10;19.35;;;10.27;;
14203;SDS011;7185;51.854;6.622;2022-11-04T15:53:46;15.65;;;9.48;;
14203;SDS011;7185;51.854;6.622;2022-11-04T15:56:21;19.98;;;9.98;;
14203;SDS011;7185;51.854;6.622;2022-11-04T15:58:53;17.38;;;10.10;;
14203;SDS011;7185;51.854;6.622;2022-11-04T16:01:25;19.73;;;9.32;;
14203;SDS011;7185;51.854;6.622;2022-11-04T16:03:58;23.30;;;10.13;;
14203;SDS011;7185;51.854;6.622;2022-11-04T16:06:32;18.67;;;10.10;;
14203;SDS011;7185;51.854;6.622;2022-11-04T16:09:05;20.05;;;9.57;;
14203;SDS011;7185;51.854;6.622;2022-11-04T16:11:38;21.50;;;10.10;;
14203;SDS011;7185;51.854;6.622;2022-11-04T16:14:13;18.60;;;9.68;;
14203;SDS011;7185;51.854;6.622;2022-11-04T16:16:45;17.27;;;10.40;;
14203;SDS011;7185;51.854;6.622;2022-11-04T16:19:18;20.73;;;11.18;;
14203;SDS011;7185;51.854;6.622;2022-11-04T16:21:57;23.27;;;11.55;;
14203;SDS011;7185;51.854;6.622;2022-11-04T16:24:29;19.15;;;10.90;;
14203;SDS011;7185;51.854;6.622;2022-11-04T16:27:05;23.45;;;10.75;;
14203;SDS011;7185;51.854;6.622;2022-11-04T16:29:38;17.92;;;9.88;;
14203;SDS011;7185;51.854;6.622;2022-11-04T16:32:17;17.45;;;10.25;;
14203;SDS011;7185;51.854;6.622;2022-11-04T16:34:50;21.15;;;11.20;;
14203;SDS011;7185;51.854;6.622;2022-11-04T16:37:22;18.35;;;11.50;;
14203;SDS011;7185;51.854;6.622;2022-11-04T16:39:54;19.65;;;10.77;;
14203;SDS011;7185;51.854;6.622;2022-11-04T16:42:27;19.98;;;10.70;;